Tiempo atmosférico en la estación meteorológica de Espolla, Girona (94 m.)



Fecha
DESCASC
Temp. máxima en grados centígrados (hora)
DESCASC
Temp. mínima en grados centígrados (hora)
DESCASC
Temp. media en grados centígrados
DESCASC
Racha de viento máxima en m/sg (hora)
DESCASC
Velocidad máxima media en intervalos de 10 minutos(hora)
DESCASC
Precipitaciones diarias en mm
DESCASC
Precipitaciones de 00:00 a 06:00 en mm
DESCASC
Precipitaciones de 06:00 a 12:00 en mm
DESCASC
Precipitaciones de 12:00 a 18:00 en mm
DESCASC
Precipitaciones de 18:00 a 24:00 en mm
DESCASC
13-01-2021 17 (14:40) 2.5 (07:00) 9.8 16.11 (10:10) 8.61 (10:10) 0 0 0 0 0
12-01-2021 12.5 (15:30) -1.8 (07:30) 5.4 13.33 (21:40) 6.39 (20:30) 0 0 0 0 0
11-01-2021 10.5 (15:20) -0.6 (08:40) 4.9 13.61 (23:10) 7.5 (22:50) 0 0 0 0 0
10-01-2021 6.8 (14:40) 2.5 (05:20) 4.7 11.39 (03:40) 7.78 (03:40) 1 0.8 0.2 0 0
09-01-2021 5.2 (14:10) 2.2 (00:00) 3.7 11.11 (22:00) 6.94 (22:10) 12 0.2 2.8 4.4 4.6
08-01-2021 9.1 (14:10) -1.5 (-00:0) 3.8 9.44 (23:20) 4.72 (23:30) 0 0 0 0 0
07-01-2021 6 (13:10) -1.6 (-00:0) 2.2 6.67 (21:20) 3.89 (23:10) 0 0 0 0 0
06-01-2021 8.3 (15:00) -2.6 (-00:0) 2.9 6.39 (07:10) 4.17 (07:10) 0 0 0 0 0
05-01-2021 8.5 (12:50) -2 (-00:0) 3.3 5.56 (20:00) 3.33 (20:00) 0 0 0 0 0
04-01-2021 9.4 (14:50) -1.4 (-00:0) 4 6.11 (09:00) 4.17 (19:00) 0 0 0 0 0
03-01-2021 8.5 (15:10) -1.2 (-00:0) 3.6 20.28 (03:20) 10.28 (03:20) 0 0 0 0 0
02-01-2021 8.3 (13:20) 2.6 (00:00) 5.5 20.28 (21:20) 11.11 (21:30) 0 0 0 0 0
01-01-2021 11.1 (12:00) 3.5 (00:00) 7.3 14.17 (20:00) 5.28 (20:00) 0 0 0 0 0
31-12-2020 13.3 (15:00) 1.3 (00:00) 7.3 5 (01:50) 3.61 (01:40) 0 0 0 0 0
30-12-2020 12.1 (14:40) 1.7 (00:00) 6.9 15.28 (13:50) 8.61 (13:50) 0 0 0 0 0
29-12-2020 13.5 (12:30) 0.5 (00:00) 7 6.94 (14:40) 4.44 (14:40) 0.2 0 0 0.2 0
28-12-2020 13.2 (16:20) 1 (00:00) 7.1 7.22 (20:40) 4.44 (20:40) 0 0 0 0 0
27-12-2020 7.9 (12:00) -1.1 (-00:0) 3.4 5.83 (22:00) 3.89 (23:00) 0 0 0 0 0
26-12-2020 9.3 (13:40) 2.4 (00:00) 5.9 29.72 (04:00) 17.5 (04:50) 0 0 0 0 0
25-12-2020 10 (02:00) 5.3 (00:00) 7.7 26.11 (10:00) 13.89 (09:40) 0 0 0 0 0
24-12-2020 12.8 (08:00) 6.2 (00:00) 9.5 13.89 (08:20) 5.56 (06:20) 0 0 0 0 0
23-12-2020 14.4 (14:10) 7.3 (00:00) 10.8 5.28 (03:40) 3.61 (04:10) 0 0 0 0 0
22-12-2020 18.3 (15:00) 6.1 (00:00) 12.2 4.17 (03:20) 2.5 (22:30) 0 0 0 0 0
21-12-2020 14.8 (15:20) 5.7 (00:00) 10.3 6.11 (05:00) 3.89 (05:00) 0 0 0 0 0
20-12-2020 15.3 (15:40) 6.9 (00:00) 11.1 8.61 (14:10) 3.61 (14:10) 0.8 0 0.8 0 0
19-12-2020 15.9 (15:40) 9.6 (00:00) 12.8 7.22 (00:40) 4.17 (01:20) 0 0 0 0 0

Gráficas

Temp. máximas Temp. mínimas Temp. medias Precipitaciones Rachas de viento máximas Velocidades máximas media en intervalos de 10 minutos

Datos horarios

Fecha y hora oficial Temperatura (ºC) Velocidad del viento (km/h) Dirección del viento Racha (km/h) Dirección de racha Precipitación (mm) Presión (hPa) Tendencia (hPa) Humedad (%)
2021-01-17 23:00:00 8.2 18 Nordeste 50 Norte 0 -- -- 59
2021-01-17 22:00:00 8.7 22 Nordeste 51 Norte 0 -- -- 59
2021-01-17 21:00:00 8.7 19 Norte 43 Nordeste 0 -- -- 63
2021-01-17 20:00:00 10 14 Norte 44 Nordeste 0 -- -- 58
2021-01-17 19:00:00 9.9 15 Norte 55 Norte 0 -- -- 65
2021-01-17 18:00:00 11.2 26 Norte 55 Norte 0 -- -- 63
2021-01-17 17:00:00 12.4 32 Nordeste 51 Norte 0 -- -- 65
2021-01-17 16:00:00 14.4 23 Nordeste 57 Norte 0 -- -- 62
2021-01-17 15:00:00 15.2 21 Norte 48 Norte 0 -- -- 61
2021-01-17 14:00:00 15.3 16 Norte 48 Norte 0 -- -- 62
2021-01-17 13:00:00 15.7 22 Norte 59 Noroeste 0 -- -- 56
2021-01-17 12:00:00 11.5 3 Sur 10 Sur 0 -- -- 56
2021-01-17 11:00:00 11.4 0 Calma 9 Nordeste 0 -- -- 57
2021-01-17 10:00:00 9 6 Nordeste 14 Nordeste 0 -- -- 70
2021-01-17 09:00:00 6 4 Nordeste 20 Nordeste 0 -- -- 77
2021-01-17 08:00:00 5.2 10 Nordeste 22 Nordeste 0 -- -- 77
2021-01-17 07:00:00 4.9 9 Nordeste 17 Nordeste 0 -- -- 77
2021-01-17 06:00:00 3.9 4 Norte 12 Nordeste 0 -- -- 80
2021-01-17 05:00:00 3.5 4 Nordeste 13 Norte 0 -- -- 79
2021-01-17 04:00:00 3.3 3 Norte 10 Nordeste 0 -- -- 79
2021-01-17 03:00:00 4 3 Norte 13 Nordeste 0 -- -- 75
2021-01-17 02:00:00 4.6 3 Nordeste 11 Nordeste 0 -- -- 72
2021-01-17 01:00:00 6.7 8 Nordeste 13 Nordeste 0 -- -- 65
2021-01-17 00:00:00 6.6 7 Nordeste 18 Nordeste 0 -- -- 64
2021-01-16 23:00:00 6.6 5 Nordeste 15 Nordeste 0 -- -- 64
2021-01-16 22:00:00 7.2 8 Nordeste 12 Nordeste 0 -- -- 62
2021-01-16 21:00:00 8.4 3 Nordeste 7 Sur 0 -- -- 55
2021-01-16 20:00:00 9.4 0 Calma 13 Nordeste 0 -- -- 50
2021-01-16 19:00:00 10.2 8 Norte 23 Noroeste 0 -- -- 42
2021-01-16 18:00:00 11 7 Noroeste 22 Noroeste 0 -- -- 36
2021-01-16 17:00:00 12 8 Nordeste 25 Nordeste 0 -- -- 31
2021-01-16 16:00:00 13.5 13 Nordeste 26 Noroeste 0 -- -- 27
2021-01-16 15:00:00 13 12 Nordeste 32 Nordeste 0 -- -- 28
2021-01-16 14:00:00 13.7 12 Norte 32 Noroeste 0 -- -- 26
2021-01-16 13:00:00 13.4 13 Norte 32 Norte 0 -- -- 28
2021-01-16 12:00:00 12.5 15 Noroeste 36 Oeste 0 -- -- 24
2021-01-16 11:00:00 12.4 20 Noroeste 45 Noroeste 0 -- -- 24
2021-01-16 10:00:00 11.6 22 Noroeste 44 Norte 0 -- -- 22
2021-01-16 09:00:00 10.2 15 Noroeste 38 Noroeste 0 -- -- 24
2021-01-16 08:00:00 9.2 21 Noroeste 36 Oeste 0 -- -- 32
2021-01-16 07:00:00 9.2 22 Noroeste 44 Oeste 0 -- -- 35
2021-01-16 06:00:00 8.2 17 Noroeste 32 Oeste 0 -- -- 46
2021-01-16 05:00:00 8.2 17 Noroeste 45 Noroeste 0 -- -- 48
2021-01-16 04:00:00 8.1 18 Noroeste 42 Oeste 0 -- -- 52
2021-01-16 03:00:00 7.6 19 Noroeste 38 Oeste 0 -- -- 57
2021-01-16 02:00:00 7.2 24 Noroeste 57 Noroeste 0 -- -- 61
2021-01-16 01:00:00 7.4 28 Norte 64 Norte 0 -- -- 61
2021-01-16 00:00:00 7.5 16 Noroeste 68 Norte 0 -- -- 60
2021-01-15 23:00:00 7.7 24 Norte 64 Noroeste 0 -- -- 61
2021-01-15 22:00:00 8.9 19 Norte 63 Noroeste 0 -- -- 54
2021-01-15 21:00:00 9.1 13 Norte 68 Noroeste 0 -- -- 54
2021-01-15 20:00:00 8.7 31 Norte 87 Norte 0 -- -- 57
2021-01-15 19:00:00 9 39 Norte 84 Noroeste 0 -- -- 56
2021-01-15 18:00:00 9.8 37 Norte 76 Norte 0 -- -- 51
2021-01-15 17:00:00 10.7 37 Norte 79 Norte 0 -- -- 50
2021-01-15 16:00:00 11.7 25 Norte 54 Noroeste 0 -- -- 51
2021-01-15 15:00:00 12.7 20 Norte 57 Noroeste 0 -- -- 48
2021-01-15 14:00:00 13 21 Noroeste 54 Noroeste 0 -- -- 48
2021-01-15 13:00:00 12.8 29 Norte 72 Norte 0 -- -- 49
2021-01-15 12:00:00 13.3 36 Norte 77 Norte 0 -- -- 45
2021-01-15 11:00:00 12.5 37 Norte 72 Norte 0 -- -- 47
2021-01-15 10:00:00 11.1 35 Norte 76 Norte 0 -- -- 57
2021-01-15 09:00:00 10.7 44 Norte 71 Norte 0 -- -- 59
2021-01-15 08:00:00 10.4 45 Norte 74 Norte 0 -- -- 60
2021-01-15 07:00:00 11.3 34 Norte 79 Norte 0 -- -- 50
2021-01-15 06:00:00 11.3 44 Norte 80 Norte 0 -- -- 53
2021-01-15 05:00:00 11 47 Norte 82 Norte 0 -- -- 57
2021-01-15 04:00:00 11.2 37 Norte 77 Norte 0 -- -- 56
2021-01-15 03:00:00 11.4 32 Norte 57 Norte 0 -- -- 58
2021-01-15 02:00:00 12.5 28 Norte 55 Norte 0 -- -- 48
2021-01-15 01:00:00 13 24 Norte 55 Norte 0 -- -- 49
2021-01-15 00:00:00 13.2 24 Norte 66 Norte 0 -- -- 55
2021-01-14 23:00:00 13.5 23 Norte 55 Norte 0 -- -- 57
2021-01-14 22:00:00 13 13 Norte 37 Norte 0 -- -- 57
2021-01-14 21:00:00 12.9 11 Noroeste 35 Norte 0 -- -- 54
2021-01-14 20:00:00 13.7 21 Norte 44 Norte 0 -- -- 48
2021-01-14 19:00:00 9.2 8 Nordeste 30 Norte 0 -- -- 54
2021-01-14 18:00:00 10.9 11 Noroeste 33 Oeste 0 -- -- 53
2021-01-14 17:00:00 12.9 11 Sudoeste 28 Oeste 0 -- -- 47
2021-01-14 16:00:00 14.4 16 Oeste 33 Noroeste 0 -- -- 42
2021-01-14 15:00:00 15.3 7 Oeste 35 Noroeste 0 -- -- 40
2021-01-14 14:00:00 14.4 10 Sur 46 Noroeste 0 -- -- 43
2021-01-14 13:00:00 14 22 Noroeste 44 Noroeste 0 -- -- 42
2021-01-14 12:00:00 13.1 12 Sur 37 Sudoeste 0 -- -- 46
2021-01-14 11:00:00 11.6 11 Sudoeste 17 Sur 0 -- -- 51
2021-01-14 10:00:00 8 4 Norte 9 Nordeste 0 -- -- 70
2021-01-14 09:00:00 1.9 4 Este 8 Este 0 -- -- 94
2021-01-14 08:00:00 0.8 0 Calma 7 Nordeste 0 -- -- 87
2021-01-14 07:00:00 2 0 Calma 12 Nordeste 0 -- -- 85
2021-01-14 06:00:00 2.9 8 Nordeste 14 Nordeste 0 -- -- 85
2021-01-14 05:00:00 2.3 3 Norte 12 Norte 0 -- -- 87
2021-01-14 04:00:00 2.7 4 Norte 15 Norte 0 -- -- 85
2021-01-14 03:00:00 2.9 4 Norte 14 Este 0 -- -- 85
2021-01-14 02:00:00 2.7 3 Nordeste 12 Nordeste 0 -- -- 84
2021-01-14 01:00:00 4.6 6 Este 11 Nordeste 0 -- -- 77
2021-01-14 00:00:00 5.5 3 Nordeste 14 Este 0 -- -- 75
2021-01-13 23:00:00 7 4 Sudeste 26 Norte 0 -- -- 68
2021-01-13 22:00:00 10 15 Noroeste 23 Noroeste 0 -- -- 59
2021-01-13 21:00:00 8.3 3 Nordeste 18 Noroeste 0 -- -- 67
2021-01-13 20:00:00 8.1 3 Norte 10 Noroeste 0 -- -- 68
2021-01-13 19:00:00 9.4 4 Este 11 Sur 0 -- -- 64
2021-01-13 18:00:00 12.3 8 Este 48 Norte 0 -- -- 54
2021-01-13 17:00:00 14 17 Norte 32 Noroeste 0 -- -- 50
2021-01-13 16:00:00 15.8 15 Norte 35 Noroeste 0 -- -- 44
2021-01-13 15:00:00 16.4 8 Norte 25 Sudoeste 0 -- -- 42
2021-01-13 14:00:00 16.7 11 Sudoeste 31 Norte 0 -- -- 41
2021-01-13 13:00:00 16.7 15 Norte 50 Noroeste 0 -- -- 41
2021-01-13 12:00:00 15.9 16 Noroeste 38 Noroeste 0 -- -- 43
2021-01-13 11:00:00 14.9 17 Norte 58 Norte 0 -- -- 45
2021-01-13 10:00:00 13.5 30 Norte 52 Nordeste 0 -- -- 49
2021-01-13 09:00:00 8 8 Norte 37 Nordeste 0 -- -- 66
2021-01-13 08:00:00 5.7 10 Norte 19 Norte 0 -- -- 67
2021-01-13 07:00:00 2.5 5 Este 12 Norte 0 -- -- 77
2021-01-13 06:00:00 4.3 3 Nordeste 15 Nordeste 0 -- -- 69
2021-01-13 05:00:00 3.4 5 Nordeste 14 Norte 0 -- -- 77
2021-01-13 04:00:00 3.6 6 Sudoeste 17 Norte 0 -- -- 75
2021-01-13 03:00:00 3.9 4 Sudoeste 16 Sur 0 -- -- 74
2021-01-13 02:00:00 3.9 5 Oeste 27 Sur 0 -- -- 73
2021-01-13 01:00:00 4.1 6 Oeste 15 Sur 0 -- -- 71
2021-01-13 00:00:00 5.5 7 Sudoeste 17 Sudoeste 0 -- -- 66
2021-01-12 23:00:00 6.7 3 Sur 17 Sudoeste 0 -- -- 60
2021-01-12 22:00:00 9.7 9 Oeste 48 Norte 0 -- -- 49
2021-01-12 21:00:00 10.2 8 Oeste 43 Noroeste 0 -- -- 50
2021-01-12 20:00:00 9.4 8 Sudoeste 26 Oeste 0 -- -- 54
2021-01-12 19:00:00 10.1 12 Sudoeste 37 Noroeste 0 -- -- 52
2021-01-12 18:00:00 10.2 16 Oeste 46 Norte 0 -- -- 51
2021-01-12 17:00:00 11.6 9 Sudeste 33 Oeste 0 -- -- 44
2021-01-12 16:00:00 11.9 18 Oeste 33 Oeste 0 -- -- 42
2021-01-12 15:00:00 12.2 10 Sur 27 Sur 0 -- -- 40
2021-01-12 14:00:00 11.2 19 Sudeste 46 Sudeste 0 -- -- 40
2021-01-12 13:00:00 9.2 14 Sudoeste 40 Norte 0 -- -- 46
2021-01-12 12:00:00 10 12 Sur 23 Noroeste 0 -- -- 40
2021-01-12 11:00:00 7.2 5 Sudoeste 14 Sur 0 -- -- 50
2021-01-12 10:00:00 4.1 3 Sur 10 Sudoeste 0 -- -- 58
2021-01-12 09:00:00 -0.6 4 Norte 13 Norte 0 -- -- 76
2021-01-12 08:00:00 -1.1 6 Nordeste 15 Nordeste 0 -- -- 74
2021-01-12 07:00:00 -0.9 7 Norte 17 Norte 0 -- -- 72
2021-01-12 06:00:00 -0.8 4 Nordeste 14 Norte 0 -- -- 70
2021-01-12 05:00:00 0.1 5 Este 14 Sudoeste 0 -- -- 65
2021-01-12 04:00:00 1.9 5 Sudoeste 14 Sur 0 -- -- 53
2021-01-12 03:00:00 0.4 4 Sur 11 Sur 0 -- -- 61
2021-01-12 02:00:00 1.4 5 Sudeste 17 Sur 0 -- -- 55
2021-01-12 01:00:00 4.9 10 Sudeste 43 Norte 0 -- -- 43
2021-01-12 00:00:00 8.3 19 Norte 49 Noroeste 0 -- -- 23
2021-01-11 23:00:00 8 25 Norte 47 Noroeste 0 -- -- 24
2021-01-11 22:00:00 -0.4 3 Oeste 9 Nordeste 0 -- -- 75
2021-01-11 21:00:00 -0.1 2 Nordeste 10 Nordeste 0 -- -- 69
2021-01-11 20:00:00 2.7 0 Calma 14 Sudeste 0 -- -- 58
2021-01-11 19:00:00 4.7 5 Sudoeste 34 Noroeste 0 -- -- 53
2021-01-11 18:00:00 6.3 10 Noroeste 36 Noroeste 0 -- -- 49
2021-01-11 17:00:00 9.3 13 Noroeste 20 Noroeste 0 -- -- 36
2021-01-11 16:00:00 9.5 13 Norte 37 Norte 0 -- -- 32
2021-01-11 15:00:00 10.1 16 Noroeste 36 Noroeste 0 -- -- 33
2021-01-11 14:00:00 9.7 13 Oeste 44 Oeste 0 -- -- 37
2021-01-11 13:00:00 8.3 14 Oeste 28 Oeste 0 -- -- 48
2021-01-11 12:00:00 7.1 11 Sur 18 Sur 0 -- -- 49
2021-01-11 11:00:00 6 9 Sur 15 Sur 0 -- -- 52
2021-01-11 10:00:00 4.2 2 Sur 7 Sudoeste 0 -- -- 58
2021-01-11 09:00:00 0.3 5 Sur 12 Oeste 0 -- -- 71
2021-01-11 08:00:00 0.5 7 Noroeste 14 Sudoeste 0 -- -- 68
2021-01-11 07:00:00 2.2 8 Este 18 Este 0 -- -- 58
2021-01-11 06:00:00 1.9 10 Sudeste 24 Sudeste 0 -- -- 62
2021-01-11 05:00:00 2 13 Este 23 Este 0 -- -- 63
2021-01-11 04:00:00 2 8 Noroeste 17 Noroeste 0 -- -- 66
2021-01-11 03:00:00 3.1 8 Este 23 Sur 0 -- -- 59
2021-01-11 02:00:00 3.4 18 Sur 25 Sur 0 -- -- 60
2021-01-11 01:00:00 3.7 9 Sur 25 Nordeste 0 -- -- 64
2021-01-11 00:00:00 3.9 6 Sudoeste 25 Este 0 -- -- 65
2021-01-10 23:00:00 4.3 8 Este 35 Este 0 -- -- 64
2021-01-10 22:00:00 4 15 Este 28 Nordeste 0 -- -- 67
2021-01-10 21:00:00 4.8 5 Nordeste 23 Este 0 -- -- 69
2021-01-10 20:00:00 5 12 Nordeste 28 Nordeste 0 -- -- 69
2021-01-10 19:00:00 5.3 7 Norte 23 Nordeste 0 -- -- 68
2021-01-10 18:00:00 5.4 11 Nordeste 31 Nordeste 0 -- -- 68
2021-01-10 17:00:00 5.9 12 Nordeste 24 Nordeste 0 -- -- 69
2021-01-10 16:00:00 6.2 10 Norte 30 Norte 0 -- -- 70
2021-01-10 15:00:00 6 18 Nordeste 30 Norte 0 -- -- 72
2021-01-10 14:00:00 6.2 8 Norte 32 Nordeste 0 -- -- 70
2021-01-10 13:00:00 5.5 17 Nordeste 31 Nordeste 0 -- -- 74
2021-01-10 12:00:00 5.3 8 Nordeste 24 Nordeste 0 -- -- 74
2021-01-10 11:00:00 4.4 8 Nordeste 26 Nordeste 0 -- -- 76
2021-01-10 10:00:00 4 6 Norte 37 Nordeste 0 -- -- 78
2021-01-10 09:00:00 4.1 14 Nordeste 27 Norte 0 -- -- 75
2021-01-10 08:00:00 4 12 Nordeste 34 Norte 0 -- -- 76
2021-01-10 07:00:00 3 5 Oeste 17 Norte 0.2 -- -- 84
2021-01-10 06:00:00 2.7 12 Nordeste 33 Este 0.2 -- -- 85
2021-01-10 05:00:00 2.8 11 Nordeste 29 Nordeste 0.6 -- -- 82
2021-01-10 04:00:00 3.5 20 Nordeste 41 Nordeste 0 -- -- 74
2021-01-10 03:00:00 3.8 22 Nordeste 39 Nordeste 0 -- -- 73
2021-01-10 02:00:00 3.7 15 Nordeste 35 Nordeste 0 -- -- 76
2021-01-10 01:00:00 3.3 10 Norte 38 Nordeste 0 -- -- 82
2021-01-10 00:00:00 3.9 23 Nordeste 40 Norte 0.2 -- -- 80
2021-01-09 23:00:00 4.1 18 Nordeste 38 Norte 0.2 -- -- 82
2021-01-09 22:00:00 4.2 21 Nordeste 40 Nordeste 0.6 -- -- 85
2021-01-09 21:00:00 4.1 6 Nordeste 25 Nordeste 1.6 -- -- 86
2021-01-09 20:00:00 4.6 9 Nordeste 27 Nordeste 1.2 -- -- 85
2021-01-09 19:00:00 4.5 6 Nordeste 15 Nordeste 0.8 -- -- 88
2021-01-09 18:00:00 4.5 5 Nordeste 21 Nordeste 0.4 -- -- 87
2021-01-09 17:00:00 4.7 7 Nordeste 20 Este 1.2 -- -- 86
2021-01-09 16:00:00 4.6 10 Nordeste 23 Nordeste 0.6 -- -- 86
2021-01-09 15:00:00 4.9 10 Nordeste 26 Nordeste 0.6 -- -- 85
2021-01-09 14:00:00 5.1 3 Norte 19 Nordeste 0.6 -- -- 85
2021-01-09 13:00:00 4.9 4 Nordeste 13 Nordeste 1 -- -- 87
2021-01-09 12:00:00 4.4 6 Norte 15 Nordeste 0.4 -- -- 85
2021-01-09 11:00:00 4.4 0 Calma 15 Norte 1 -- -- 86
2021-01-09 10:00:00 4.3 6 Nordeste 20 Nordeste 0.4 -- -- 85
2021-01-09 09:00:00 3.9 7 Nordeste 21 Nordeste 0.6 -- -- 85
2021-01-09 08:00:00 3.8 9 Nordeste 18 Nordeste 0 -- -- 85
2021-01-09 07:00:00 2.3 2 Sudoeste 10 Sudoeste 0.4 -- -- 90
2021-01-09 06:00:00 2.3 5 Sudeste 12 Nordeste 0.2 -- -- 86
2021-01-09 05:00:00 2.6 2 Nordeste 14 Norte 0 -- -- 81
2021-01-09 04:00:00 3.1 8 Nordeste 32 Nordeste 0 -- -- 77
2021-01-09 03:00:00 4.8 7 Este 29 Nordeste 0 -- -- 57
2021-01-09 02:00:00 4.7 12 Nordeste 28 Nordeste 0 -- -- 54
2021-01-09 01:00:00 4.8 14 Nordeste 31 Nordeste 0 -- -- 56
2021-01-09 00:00:00 5 15 Nordeste 34 Nordeste 0 -- -- 55
2021-01-08 23:00:00 4.8 11 Norte 22 Este 0 -- -- 52
2021-01-08 22:00:00 4 8 Norte 19 Nordeste 0 -- -- 54
2021-01-08 21:00:00 3.3 8 Norte 11 Norte 0 -- -- 55
2021-01-08 20:00:00 3.4 3 Norte 8 Nordeste 0 -- -- 54
2021-01-08 19:00:00 4 6 Nordeste 19 Nordeste 0 -- -- 50
2021-01-08 18:00:00 5.5 10 Nordeste 24 Nordeste 0 -- -- 44
2021-01-08 17:00:00 6.3 13 Nordeste 21 Nordeste 0 -- -- 41
2021-01-08 16:00:00 7.2 11 Nordeste 28 Nordeste 0 -- -- 39
2021-01-08 15:00:00 8.2 14 Nordeste 30 Nordeste 0 -- -- 37
2021-01-08 14:00:00 8.9 7 Oeste 19 Nordeste 0 -- -- 38
2021-01-08 13:00:00 8.6 8 Sudoeste 17 Sur 0 -- -- 38
2021-01-08 12:00:00 7.7 8 Sudoeste 15 Oeste 0 -- -- 41
2021-01-08 11:00:00 7 3 Sur 13 Sur 0 -- -- 41
2021-01-08 10:00:00 5 7 Sudoeste 14 Sudeste 0 -- -- 49
2021-01-08 09:00:00 2.3 4 Sur 25 Nordeste 0 -- -- 55
2021-01-08 08:00:00 2.5 15 Sur 28 Sur 0 -- -- 56
2021-01-08 07:00:00 3.1 12 Este 33 Este 0 -- -- 55
2021-01-08 06:00:00 0.5 4 Sudeste 14 Este 0 -- -- 67
2021-01-08 05:00:00 -1 3 Norte 9 Oeste 0 -- -- 71
2021-01-08 04:00:00 -1.3 6 Sudeste 14 Nordeste 0 -- -- 73
2021-01-08 03:00:00 -0.7 4 Oeste 12 Oeste 0 -- -- 71
2021-01-08 02:00:00 0.9 8 Sudoeste 13 Sur 0 -- -- 64
2021-01-08 01:00:00 1.3 4 Sur 17 Sudeste 0 -- -- 63
2021-01-08 00:00:00 4 8 Sur 23 Sudeste 0 -- -- 52
2021-01-07 23:00:00 3.9 9 Este 18 Nordeste 0 -- -- 51
2021-01-07 22:00:00 3.8 7 Sur 24 Sudeste 0 -- -- 54
2021-01-07 21:00:00 2.1 3 Este 13 Este 0 -- -- 68
2021-01-07 20:00:00 2.8 7 Nordeste 17 Sudeste 0 -- -- 64
2021-01-07 19:00:00 3.1 5 Nordeste 22 Sudeste 0 -- -- 66
2021-01-07 18:00:00 3.2 3 Oeste 8 Sudeste 0 -- -- 70
2021-01-07 17:00:00 4.5 3 Sudoeste 8 Sudeste 0 -- -- 63
2021-01-07 16:00:00 5.4 0 Calma 10 Sudoeste 0 -- -- 55
2021-01-07 15:00:00 5.7 3 Sudoeste 10 Sudoeste 0 -- -- 53
2021-01-07 14:00:00 5.7 7 Sudoeste 13 Sudoeste 0 -- -- 54
2021-01-07 13:00:00 5.9 6 Sudoeste 10 Sudoeste 0 -- -- 54
2021-01-07 12:00:00 5.1 3 Sudoeste 5 Sudoeste 0 -- -- 55
2021-01-07 11:00:00 3.8 0 Calma 4 Sur 0 -- -- 62
2021-01-07 10:00:00 1.6 0 Calma 10 Nordeste 0 -- -- 77
2021-01-07 09:00:00 -0.6 4 Nordeste 8 Nordeste 0 -- -- 75
2021-01-07 08:00:00 -1.2 4 Nordeste 7 Norte 0 -- -- 79
2021-01-07 07:00:00 0.1 4 Norte 6 Norte 0 -- -- 78
2021-01-07 06:00:00 -0.5 0 Calma 8 Norte 0 -- -- 83
2021-01-07 05:00:00 -1 3 Norte 9 Norte 0 -- -- 82
2021-01-07 04:00:00 -1.6 4 Norte 8 Norte 0 -- -- 84
2021-01-07 03:00:00 -1 4 Nordeste 6 Norte 0 -- -- 82
2021-01-07 02:00:00 -0.4 0 Calma 8 Nordeste 0 -- -- 77
2021-01-07 01:00:00 1.9 8 Nordeste 17 Nordeste 0 -- -- 68
2021-01-07 00:00:00 2.7 14 Nordeste 22 Nordeste 0 -- -- 65
2021-01-06 23:00:00 3.6 10 Nordeste 18 Nordeste 0 -- -- 64
2021-01-06 22:00:00 3.7 11 Nordeste 17 Nordeste 0 -- -- 64
2021-01-06 21:00:00 3.4 10 Nordeste 21 Nordeste 0 -- -- 65
2021-01-06 20:00:00 3.4 15 Nordeste 22 Nordeste 0 -- -- 66
2021-01-06 19:00:00 3.7 13 Nordeste 19 Nordeste 0 -- -- 66
2021-01-06 18:00:00 4.3 13 Nordeste 21 Nordeste 0 -- -- 65
2021-01-06 17:00:00 5.8 3 Norte 7 Nordeste 0 -- -- 65
2021-01-06 16:00:00 7 6 Sur 15 Sur 0 -- -- 59
2021-01-06 15:00:00 8.3 8 Sudoeste 15 Sur 0 -- -- 53
2021-01-06 14:00:00 8.2 8 Sudoeste 17 Sudoeste 0 -- -- 55
2021-01-06 13:00:00 7.7 9 Sudoeste 18 Sur 0 -- -- 57
2021-01-06 12:00:00 7.4 9 Sudoeste 14 Sur 0 -- -- 58
2021-01-06 11:00:00 4.3 0 Calma 12 Sur 0 -- -- 71
2021-01-06 10:00:00 3.2 0 Calma 5 Sur 0 -- -- 72
2021-01-06 09:00:00 1.2 3 Sur 19 Nordeste 0 -- -- 76
2021-01-06 08:00:00 2.1 4 Sudeste 23 Nordeste 0 -- -- 73
2021-01-06 07:00:00 2 13 Nordeste 20 Nordeste 0 -- -- 72
2021-01-06 06:00:00 0.4 8 Nordeste 15 Nordeste 0 -- -- 78
2021-01-06 05:00:00 -1.7 3 Nordeste 12 Nordeste 0 -- -- 86
2021-01-06 04:00:00 -2.3 5 Nordeste 9 Nordeste 0 -- -- 86
2021-01-06 03:00:00 -2.4 4 Nordeste 8 Norte 0 -- -- 87
2021-01-06 02:00:00 -2.4 3 Nordeste 8 Norte 0 -- -- 87
2021-01-06 01:00:00 -2.4 2 Nordeste 7 Norte 0 -- -- 88
2021-01-06 00:00:00 -0.8 5 Norte 8 Norte 0 -- -- 83
2021-01-05 23:00:00 0.3 0 Calma 6 Norte 0 -- -- 78
2021-01-05 22:00:00 1.5 3 Sur 11 Nordeste 0 -- -- 76
2021-01-05 21:00:00 2.4 7 Nordeste 18 Nordeste 0 -- -- 71
2021-01-05 20:00:00 3.6 12 Nordeste 20 Nordeste 0 -- -- 65
2021-01-05 19:00:00 3.1 9 Nordeste 15 Nordeste 0 -- -- 69
2021-01-05 18:00:00 3.7 9 Nordeste 14 Nordeste 0 -- -- 69
2021-01-05 17:00:00 5.4 2 Sudoeste 20 Noroeste 0 -- -- 69
2021-01-05 16:00:00 6.2 4 Nordeste 11 Norte 0 -- -- 59
2021-01-05 15:00:00 6.9 6 Norte 20 Noroeste 0 -- -- 56
2021-01-05 14:00:00 8.3 12 Noroeste 17 Noroeste 0 -- -- 50
2021-01-05 13:00:00 8.5 10 Noroeste 19 Oeste 0 -- -- 48
2021-01-05 12:00:00 7.6 6 Sudoeste 11 Sur 0 -- -- 53
2021-01-05 11:00:00 6.3 6 Sur 9 Sur 0 -- -- 58
2021-01-05 10:00:00 3 2 Sudoeste 8 Sur 0 -- -- 78
2021-01-05 09:00:00 -0.7 2 Nordeste 12 Norte 0 -- -- 87
2021-01-05 08:00:00 -1.1 4 Norte 11 Norte 0 -- -- 87
2021-01-05 07:00:00 -1.8 4 Nordeste 8 Norte 0 -- -- 91
2021-01-05 06:00:00 -1.6 3 Nordeste 9 Norte 0 -- -- 88
2021-01-05 05:00:00 -1 2 Nordeste 10 Norte 0 -- -- 88
2021-01-05 04:00:00 -1 5 Norte 10 Norte 0 -- -- 87
2021-01-05 03:00:00 -0.4 2 Nordeste 14 Nordeste 0 -- -- 85
2021-01-05 02:00:00 -0.1 4 Nordeste 10 Nordeste 0 -- -- 86
2021-01-05 01:00:00 0.7 3 Nordeste 15 Nordeste 0 -- -- 82
2021-01-05 00:00:00 0.7 6 Nordeste 18 Nordeste 0 -- -- 83
2021-01-04 23:00:00 1.2 5 Norte 14 Nordeste 0 -- -- 82
2021-01-04 22:00:00 2.2 10 Nordeste 14 Nordeste 0 -- -- 78
2021-01-04 21:00:00 2 7 Nordeste 17 Nordeste 0 -- -- 80
2021-01-04 20:00:00 2.5 9 Nordeste 17 Nordeste 0 -- -- 79
2021-01-04 19:00:00 2.5 15 Nordeste 19 Nordeste 0 -- -- 78
2021-01-04 18:00:00 3.8 10 Nordeste 15 Nordeste 0 -- -- 76
2021-01-04 17:00:00 5.9 8 Nordeste 12 Nordeste 0 -- -- 68
2021-01-04 16:00:00 8.5 9 Sur 19 Sudeste 0 -- -- 55
2021-01-04 15:00:00 9.2 6 Sur 14 Sur 0 -- -- 51
2021-01-04 14:00:00 8.4 4 Oeste 8 Oeste 0 -- -- 56
2021-01-04 13:00:00 7 6 Sudoeste 10 Oeste 0 -- -- 64
2021-01-04 12:00:00 5.9 3 Sur 10 Sur 0 -- -- 65
2021-01-04 11:00:00 5.5 3 Sudoeste 5 Sur 0 -- -- 71
2021-01-04 10:00:00 1.6 0 Calma 18 Nordeste 0 -- -- 80
2021-01-04 09:00:00 1.6 15 Nordeste 22 Nordeste 0 -- -- 76
2021-01-04 08:00:00 0.1 3 Norte 17 Nordeste 0 -- -- 82
2021-01-04 07:00:00 -0.2 10 Nordeste 16 Nordeste 0 -- -- 83
2021-01-04 06:00:00 -0.9 2 Nordeste 13 Nordeste 0 -- -- 84
2021-01-04 05:00:00 -0.7 6 Norte 13 Norte 0 -- -- 82
2021-01-04 04:00:00 -0.3 8 Norte 10 Norte 0 -- -- 84
2021-01-04 03:00:00 -0.7 4 Norte 14 Nordeste 0 -- -- 83
2021-01-04 02:00:00 -1.4 3 Nordeste 15 Norte 0 -- -- 84
2021-01-04 01:00:00 -0.5 6 Norte 14 Norte 0 -- -- 80
2021-01-04 00:00:00 -0.3 6 Nordeste 15 Nordeste 0 -- -- 77
2021-01-03 23:00:00 -0.1 6 Norte 17 Nordeste 0 -- -- 75
2021-01-03 22:00:00 -0.2 8 Nordeste 14 Nordeste 0 -- -- 77
2021-01-03 21:00:00 -0.8 0 Calma 6 Norte 0 -- -- 77
2021-01-03 20:00:00 0.6 7 Nordeste 13 Nordeste 0 -- -- 72
2021-01-03 19:00:00 1.7 3 Nordeste 14 Nordeste 0 -- -- 67
2021-01-03 18:00:00 4 9 Norte 15 Nordeste 0 -- -- 57
2021-01-03 17:00:00 6.7 5 Nordeste 19 Nordeste 0 -- -- 48
2021-01-03 16:00:00 7.9 10 Nordeste 27 Norte 0 -- -- 44
2021-01-03 15:00:00 8.4 13 Norte 30 Norte 0 -- -- 42
2021-01-03 14:00:00 8 18 Norte 38 Noroeste 0 -- -- 42
2021-01-03 13:00:00 7.6 15 Noroeste 41 Norte 0 -- -- 43
2021-01-03 12:00:00 6 20 Noroeste 37 Norte 0 -- -- 46
2021-01-03 11:00:00 5.1 12 Noroeste 36 Noroeste 0 -- -- 50
2021-01-03 10:00:00 3.9 18 Norte 39 Noroeste 0 -- -- 52
2021-01-03 09:00:00 3.8 20 Norte 45 Norte 0 -- -- 51
2021-01-03 08:00:00 3.9 24 Norte 53 Norte 0 -- -- 48
2021-01-03 07:00:00 4.7 24 Noroeste 54 Noroeste 0 -- -- 43
2021-01-03 06:00:00 4.3 18 Norte 49 Noroeste 0 -- -- 45
2021-01-03 05:00:00 4 23 Norte 60 Noroeste 0 -- -- 47
2021-01-03 04:00:00 3.9 25 Norte 73 Norte 0 -- -- 48
2021-01-03 03:00:00 3.9 35 Norte 62 Norte 0 -- -- 48
2021-01-03 02:00:00 4 33 Norte 65 Norte 0 -- -- 47
2021-01-03 01:00:00 4.1 12 Norte 58 Norte 0 -- -- 47
2021-01-03 00:00:00 3.6 19 Noroeste 50 Norte 0 -- -- 49
2021-01-02 23:00:00 3.6 23 Norte 58 Norte 0 -- -- 51
2021-01-02 22:00:00 3 19 Norte 73 Norte 0 -- -- 56
2021-01-02 21:00:00 2.6 28 Norte 64 Norte 0 -- -- 61
2021-01-02 20:00:00 3.3 26 Norte 46 Norte 0 -- -- 58
2021-01-02 19:00:00 3.3 23 Norte 46 Norte 0 -- -- 57
2021-01-02 18:00:00 3.5 12 Nordeste 35 Norte 0 -- -- 56
2021-01-02 17:00:00 3.9 19 Nordeste 48 Nordeste 0 -- -- 58
2021-01-02 16:00:00 5.7 24 Norte 50 Norte 0 -- -- 51
2021-01-02 15:00:00 7 23 Norte 48 Noroeste 0 -- -- 46
2021-01-02 14:00:00 7.8 19 Norte 42 Norte 0 -- -- 43